sensor_id;sensor_type;location;lat;lon;timestamp;noise_LAeq;noise_LA_min;noise_LA_max;noise_LA01;noise_LA95
67308;Laerm;57662;51.436;5.978;2023-07-29T00:00:07;40.66;36.62;49.53;;
67308;Laerm;57662;51.436;5.978;2023-07-29T00:00:17;39.03;36.02;46.67;;
67308;Laerm;57662;51.436;5.978;2023-07-29T00:00:28;38.92;36.80;42.23;;
67308;Laerm;57662;51.436;5.978;2023-07-29T00:00:38;40.80;37.47;47.14;;
67308;Laerm;57662;51.436;5.978;2023-07-29T00:00:49;39.44;36.66;43.06;;
67308;Laerm;57662;51.436;5.978;2023-07-29T00:00:59;39.86;37.29;44.95;;
67308;Laerm;57662;51.436;5.978;2023-07-29T00:01:11;39.61;36.88;44.75;;
67308;Laerm;57662;51.436;5.978;2023-07-29T00:01:24;39.01;36.54;43.44;;
67308;Laerm;57662;51.436;5.978;2023-07-29T00:01:34;38.30;36.13;41.36;;
67308;Laerm;57662;51.436;5.978;2023-07-29T00:01:45;38.54;36.73;43.87;;
67308;Laerm;57662;51.436;5.978;2023-07-29T00:01:56;39.30;37.12;45.48;;
67308;Laerm;57662;51.436;5.978;2023-07-29T00:02:06;39.74;36.65;44.44;;
67308;Laerm;57662;51.436;5.978;2023-07-29T00:02:16;38.83;36.08;42.48;;
67308;Laerm;57662;51.436;5.978;2023-07-29T00:02:27;39.04;36.52;47.81;;
67308;Laerm;57662;51.436;5.978;2023-07-29T00:02:39;39.14;36.35;42.71;;
67308;Laerm;57662;51.436;5.978;2023-07-29T00:02:50;38.14;36.31;40.21;;
67308;Laerm;57662;51.436;5.978;2023-07-29T00:03:00;37.43;36.20;39.00;;
67308;Laerm;57662;51.436;5.978;2023-07-29T00:03:10;37.47;36.09;40.22;;
67308;Laerm;57662;51.436;5.978;2023-07-29T00:03:20;37.56;36.00;39.47;;
67308;Laerm;57662;51.436;5.978;2023-07-29T00:03:31;37.89;36.23;40.14;;
67308;Laerm;57662;51.436;5.978;2023-07-29T00:03:42;37.98;36.02;42.12;;
67308;Laerm;57662;51.436;5.978;2023-07-29T00:03:52;38.31;35.79;42.86;;
67308;Laerm;57662;51.436;5.978;2023-07-29T00:04:02;37.36;35.73;40.66;;
67308;Laerm;57662;51.436;5.978;2023-07-29T00:04:13;37.68;35.81;42.20;;
67308;Laerm;57662;51.436;5.978;2023-07-29T00:04:23;37.95;36.29;42.92;;
67308;Laerm;57662;51.436;5.978;2023-07-29T00:04:33;37.84;36.27;41.01;;
67308;Laerm;57662;51.436;5.978;2023-07-29T00:04:44;37.42;35.84;40.86;;
67308;Laerm;57662;51.436;5.978;2023-07-29T00:04:54;37.48;36.10;40.91;;
67308;Laerm;57662;51.436;5.978;2023-07-29T00:05:04;37.42;35.53;39.42;;
67308;Laerm;57662;51.436;5.978;2023-07-29T00:05:14;37.53;36.04;38.71;;
67308;Laerm;57662;51.436;5.978;2023-07-29T00:05:25;37.64;35.98;41.24;;
67308;Laerm;57662;51.436;5.978;2023-07-29T00:05:36;37.79;35.79;44.30;;
67308;Laerm;57662;51.436;5.978;2023-07-29T00:05:47;37.44;35.83;39.20;;
67308;Laerm;57662;51.436;5.978;2023-07-29T00:05:57;37.66;36.14;41.20;;
67308;Laerm;57662;51.436;5.978;2023-07-29T00:06:09;37.55;36.21;39.67;;
67308;Laerm;57662;51.436;5.978;2023-07-29T00:06:19;37.89;36.17;41.34;;
67308;Laerm;57662;51.436;5.978;2023-07-29T00:06:29;37.91;36.73;39.39;;
67308;Laerm;57662;51.436;5.978;2023-07-29T00:06:39;38.19;36.65;39.93;;
67308;Laerm;57662;51.436;5.978;2023-07-29T00:06:50;38.28;36.64;41.33;;
67308;Laerm;57662;51.436;5.978;2023-07-29T00:07:00;41.77;37.28;45.25;;
67308;Laerm;57662;51.436;5.978;2023-07-29T00:07:10;42.17;38.99;45.66;;
67308;Laerm;57662;51.436;5.978;2023-07-29T00:07:21;41.55;39.14;43.75;;
67308;Laerm;57662;51.436;5.978;2023-07-29T00:07:31;44.93;39.76;51.67;;
67308;Laerm;57662;51.436;5.978;2023-07-29T00:07:41;67.45;49.99;71.31;;
67308;Laerm;57662;51.436;5.978;2023-07-29T00:07:52;70.88;66.01;76.89;;
67308;Laerm;57662;51.436;5.978;2023-07-29T00:08:02;69.73;52.84;76.34;;
67308;Laerm;57662;51.436;5.978;2023-07-29T00:08:12;49.80;41.93;56.45;;
67308;Laerm;57662;51.436;5.978;2023-07-29T00:08:22;41.95;39.54;50.24;;
67308;Laerm;57662;51.436;5.978;2023-07-29T00:08:33;40.17;38.42;44.36;;
67308;Laerm;57662;51.436;5.978;2023-07-29T00:08:43;38.44;36.54;41.91;;
67308;Laerm;57662;51.436;5.978;2023-07-29T00:08:53;37.70;35.95;39.29;;
67308;Laerm;57662;51.436;5.978;2023-07-29T00:09:04;37.54;36.38;39.16;;
67308;Laerm;57662;51.436;5.978;2023-07-29T00:09:14;37.61;35.77;40.86;;
67308;Laerm;57662;51.436;5.978;2023-07-29T00:09:24;37.11;35.62;39.08;;
67308;Laerm;57662;51.436;5.978;2023-07-29T00:09:35;37.41;35.88;40.29;;
67308;Laerm;57662;51.436;5.978;2023-07-29T00:09:45;37.76;36.18;40.72;;
67308;Laerm;57662;51.436;5.978;2023-07-29T00:09:55;37.68;35.75;42.31;;
67308;Laerm;57662;51.436;5.978;2023-07-29T00:10:06;38.01;35.82;43.54;;
67308;Laerm;57662;51.436;5.978;2023-07-29T00:10:16;38.61;36.19;44.47;;
67308;Laerm;57662;51.436;5.978;2023-07-29T00:10:26;38.37;35.94;46.24;;
67308;Laerm;57662;51.436;5.978;2023-07-29T00:10:37;39.07;36.54;44.09;;
67308;Laerm;57662;51.436;5.978;2023-07-29T00:10:47;38.10;36.07;41.19;;
67308;Laerm;57662;51.436;5.978;2023-07-29T00:10:58;38.88;35.99;45.47;;
67308;Laerm;57662;51.436;5.978;2023-07-29T00:11:08;37.88;35.98;41.33;;
67308;Laerm;57662;51.436;5.978;2023-07-29T00:11:18;38.02;36.47;40.81;;
67308;Laerm;57662;51.436;5.978;2023-07-29T00:11:28;39.03;36.34;47.47;;
67308;Laerm;57662;51.436;5.978;2023-07-29T00:11:39;38.63;36.55;49.36;;
67308;Laerm;57662;51.436;5.978;2023-07-29T00:11:49;39.01;36.21;48.41;;
67308;Laerm;57662;51.436;5.978;2023-07-29T00:11:59;38.17;36.41;42.85;;
67308;Laerm;57662;51.436;5.978;2023-07-29T00:12:09;38.06;36.51;41.26;;
67308;Laerm;57662;51.436;5.978;2023-07-29T00:12:20;37.84;36.45;41.20;;
67308;Laerm;57662;51.436;5.978;2023-07-29T00:12:32;38.02;36.27;43.71;;
67308;Laerm;57662;51.436;5.978;2023-07-29T00:12:43;37.90;35.98;40.42;;
67308;Laerm;57662;51.436;5.978;2023-07-29T00:12:53;38.36;36.16;46.12;;
67308;Laerm;57662;51.436;5.978;2023-07-29T00:13:04;38.07;36.64;43.90;;
67308;Laerm;57662;51.436;5.978;2023-07-29T00:13:14;37.70;36.19;39.53;;
67308;Laerm;57662;51.436;5.978;2023-07-29T00:13:25;37.92;36.38;40.87;;
67308;Laerm;57662;51.436;5.978;2023-07-29T00:13:35;37.83;36.27;39.48;;
67308;Laerm;57662;51.436;5.978;2023-07-29T00:13:45;37.50;36.09;39.00;;
67308;Laerm;57662;51.436;5.978;2023-07-29T00:13:57;37.86;36.00;41.42;;
67308;Laerm;57662;51.436;5.978;2023-07-29T00:14:07;38.90;36.97;42.65;;
67308;Laerm;57662;51.436;5.978;2023-07-29T00:14:17;39.32;37.16;45.99;;
67308;Laerm;57662;51.436;5.978;2023-07-29T00:14:28;39.47;36.47;46.23;;
67308;Laerm;57662;51.436;5.978;2023-07-29T00:14:38;39.02;37.38;41.79;;
67308;Laerm;57662;51.436;5.978;2023-07-29T00:14:48;46.41;40.80;52.46;;
67308;Laerm;57662;51.436;5.978;2023-07-29T00:14:59;41.35;36.61;46.61;;
67308;Laerm;57662;51.436;5.978;2023-07-29T00:15:09;38.15;36.53;41.02;;
67308;Laerm;57662;51.436;5.978;2023-07-29T00:15:20;37.43;36.08;39.04;;
67308;Laerm;57662;51.436;5.978;2023-07-29T00:15:30;37.61;36.16;39.93;;
67308;Laerm;57662;51.436;5.978;2023-07-29T00:15:40;37.99;36.15;45.41;;
67308;Laerm;57662;51.436;5.978;2023-07-29T00:15:52;37.41;36.03;39.39;;
67308;Laerm;57662;51.436;5.978;2023-07-29T00:16:03;37.46;36.06;39.78;;
67308;Laerm;57662;51.436;5.978;2023-07-29T00:16:13;37.48;36.01;38.69;;
67308;Laerm;57662;51.436;5.978;2023-07-29T00:16:25;37.58;35.84;40.59;;
67308;Laerm;57662;51.436;5.978;2023-07-29T00:16:35;38.01;36.56;39.27;;
67308;Laerm;57662;51.436;5.978;2023-07-29T00:16:46;38.01;36.51;40.17;;
67308;Laerm;57662;51.436;5.978;2023-07-29T00:16:56;37.87;36.47;39.06;;
67308;Laerm;57662;51.436;5.978;2023-07-29T00:17:06;37.68;36.51;39.06;;
67308;Laerm;57662;51.436;5.978;2023-07-29T00:17:17;37.34;36.10;38.80;;
67308;Laerm;57662;51.436;5.978;2023-07-29T00:17:27;37.50;36.08;38.77;;
67308;Laerm;57662;51.436;5.978;2023-07-29T00:17:37;37.38;36.15;39.18;;
67308;Laerm;57662;51.436;5.978;2023-07-29T00:17:47;37.69;36.39;39.37;;
67308;Laerm;57662;51.436;5.978;2023-07-29T00:17:58;37.67;36.28;38.87;;
67308;Laerm;57662;51.436;5.978;2023-07-29T00:18:08;37.68;36.02;40.09;;
67308;Laerm;57662;51.436;5.978;2023-07-29T00:18:18;37.73;36.45;39.38;;
67308;Laerm;57662;51.436;5.978;2023-07-29T00:18:29;37.64;36.03;39.10;;
67308;Laerm;57662;51.436;5.978;2023-07-29T00:18:39;37.67;36.44;39.34;;
67308;Laerm;57662;51.436;5.978;2023-07-29T00:18:49;37.61;36.42;38.84;;
67308;Laerm;57662;51.436;5.978;2023-07-29T00:19:00;37.64;36.16;39.02;;
67308;Laerm;57662;51.436;5.978;2023-07-29T00:19:10;37.69;36.45;39.20;;
67308;Laerm;57662;51.436;5.978;2023-07-29T00:19:20;37.26;35.94;38.54;;
67308;Laerm;57662;51.436;5.978;2023-07-29T00:19:33;37.58;35.94;45.06;;
67308;Laerm;57662;51.436;5.978;2023-07-29T00:19:43;37.42;35.77;39.08;;
67308;Laerm;57662;51.436;5.978;2023-07-29T00:19:54;37.94;36.08;39.74;;
67308;Laerm;57662;51.436;5.978;2023-07-29T00:20:04;37.50;36.01;38.94;;
67308;Laerm;57662;51.436;5.978;2023-07-29T00:20:15;38.01;36.65;39.53;;
67308;Laerm;57662;51.436;5.978;2023-07-29T00:20:25;40.87;36.69;45.73;;
67308;Laerm;57662;51.436;5.978;2023-07-29T00:20:36;42.49;39.57;45.42;;
67308;Laerm;57662;51.436;5.978;2023-07-29T00:20:46;42.41;39.67;44.77;;
67308;Laerm;57662;51.436;5.978;2023-07-29T00:20:56;42.02;40.00;44.75;;
67308;Laerm;57662;51.436;5.978;2023-07-29T00:21:07;56.26;41.27;66.64;;
67308;Laerm;57662;51.436;5.978;2023-07-29T00:21:18;64.67;61.56;67.17;;
67308;Laerm;57662;51.436;5.978;2023-07-29T00:21:28;64.70;62.10;67.04;;
67308;Laerm;57662;51.436;5.978;2023-07-29T00:21:38;56.23;44.45;64.24;;
67308;Laerm;57662;51.436;5.978;2023-07-29T00:21:49;43.18;37.82;53.17;;
67308;Laerm;57662;51.436;5.978;2023-07-29T00:21:59;38.80;37.11;41.85;;
67308;Laerm;57662;51.436;5.978;2023-07-29T00:22:09;38.45;36.49;44.58;;
67308;Laerm;57662;51.436;5.978;2023-07-29T00:22:20;38.11;36.11;39.50;;
67308;Laerm;57662;51.436;5.978;2023-07-29T00:22:30;37.38;36.08;38.90;;
67308;Laerm;57662;51.436;5.978;2023-07-29T00:22:40;37.58;35.95;41.05;;
67308;Laerm;57662;51.436;5.978;2023-07-29T00:22:51;37.87;36.02;42.18;;
67308;Laerm;57662;51.436;5.978;2023-07-29T00:23:03;37.26;35.75;38.77;;
67308;Laerm;57662;51.436;5.978;2023-07-29T00:23:14;37.26;35.95;38.58;;
67308;Laerm;57662;51.436;5.978;2023-07-29T00:23:24;37.24;36.07;38.26;;
67308;Laerm;57662;51.436;5.978;2023-07-29T00:23:34;37.36;36.12;38.78;;
67308;Laerm;57662;51.436;5.978;2023-07-29T00:23:47;37.33;36.07;38.72;;
67308;Laerm;57662;51.436;5.978;2023-07-29T00:23:57;37.35;36.24;38.69;;
67308;Laerm;57662;51.436;5.978;2023-07-29T00:24:07;37.49;36.23;38.72;;
67308;Laerm;57662;51.436;5.978;2023-07-29T00:24:18;37.32;36.12;38.64;;
67308;Laerm;57662;51.436;5.978;2023-07-29T00:24:28;36.99;35.84;38.60;;
67308;Laerm;57662;51.436;5.978;2023-07-29T00:24:39;36.80;35.66;37.91;;
67308;Laerm;57662;51.436;5.978;2023-07-29T00:24:52;36.74;35.62;37.97;;
67308;Laerm;57662;51.436;5.978;2023-07-29T00:25:05;41.18;35.90;45.58;;
67308;Laerm;57662;51.436;5.978;2023-07-29T00:25:15;42.35;40.12;45.78;;
67308;Laerm;57662;51.436;5.978;2023-07-29T00:25:26;41.71;39.46;44.17;;
67308;Laerm;57662;51.436;5.978;2023-07-29T00:25:36;41.22;38.75;43.29;;
67308;Laerm;57662;51.436;5.978;2023-07-29T00:25:46;40.75;38.52;42.99;;
67308;Laerm;57662;51.436;5.978;2023-07-29T00:25:57;63.74;40.62;70.44;;
67308;Laerm;57662;51.436;5.978;2023-07-29T00:26:07;74.93;68.57;79.94;;
67308;Laerm;57662;51.436;5.978;2023-07-29T00:26:17;71.70;68.61;76.64;;
67308;Laerm;57662;51.436;5.978;2023-07-29T00:26:27;68.57;51.32;76.70;;
67308;Laerm;57662;51.436;5.978;2023-07-29T00:26:39;48.82;43.71;53.18;;
67308;Laerm;57662;51.436;5.978;2023-07-29T00:26:49;45.79;41.46;52.12;;
67308;Laerm;57662;51.436;5.978;2023-07-29T00:26:59;43.54;40.70;46.42;;
67308;Laerm;57662;51.436;5.978;2023-07-29T00:27:09;41.96;38.65;46.04;;
67308;Laerm;57662;51.436;5.978;2023-07-29T00:27:20;40.49;38.22;44.28;;
67308;Laerm;57662;51.436;5.978;2023-07-29T00:27:30;42.26;39.48;44.79;;
67308;Laerm;57662;51.436;5.978;2023-07-29T00:27:41;41.12;38.07;44.54;;
67308;Laerm;57662;51.436;5.978;2023-07-29T00:27:54;40.76;37.04;45.84;;
67308;Laerm;57662;51.436;5.978;2023-07-29T00:28:05;38.17;36.84;39.76;;
67308;Laerm;57662;51.436;5.978;2023-07-29T00:28:15;38.86;36.55;42.26;;
67308;Laerm;57662;51.436;5.978;2023-07-29T00:28:25;38.05;36.08;41.11;;
67308;Laerm;57662;51.436;5.978;2023-07-29T00:28:36;37.79;36.26;39.23;;
67308;Laerm;57662;51.436;5.978;2023-07-29T00:28:46;37.65;36.18;39.14;;
67308;Laerm;57662;51.436;5.978;2023-07-29T00:28:59;37.79;36.34;39.29;;
67308;Laerm;57662;51.436;5.978;2023-07-29T00:29:10;37.57;36.30;38.92;;
67308;Laerm;57662;51.436;5.978;2023-07-29T00:29:20;37.57;36.20;39.15;;
67308;Laerm;57662;51.436;5.978;2023-07-29T00:29:30;37.88;36.17;41.69;;
67308;Laerm;57662;51.436;5.978;2023-07-29T00:29:41;43.38;39.24;46.19;;
67308;Laerm;57662;51.436;5.978;2023-07-29T00:29:51;42.95;39.03;46.46;;
67308;Laerm;57662;51.436;5.978;2023-07-29T00:30:02;43.09;39.40;45.89;;
67308;Laerm;57662;51.436;5.978;2023-07-29T00:30:12;43.23;39.64;45.88;;
67308;Laerm;57662;51.436;5.978;2023-07-29T00:30:22;43.72;39.94;46.00;;
67308;Laerm;57662;51.436;5.978;2023-07-29T00:30:32;60.34;40.84;72.89;;
67308;Laerm;57662;51.436;5.978;2023-07-29T00:30:43;68.24;65.08;71.76;;
67308;Laerm;57662;51.436;5.978;2023-07-29T00:30:53;69.15;66.41;72.59;;
67308;Laerm;57662;51.436;5.978;2023-07-29T00:31:03;61.16;45.99;69.97;;
67308;Laerm;57662;51.436;5.978;2023-07-29T00:31:14;45.45;41.90;53.22;;
67308;Laerm;57662;51.436;5.978;2023-07-29T00:31:24;40.47;37.68;48.57;;
67308;Laerm;57662;51.436;5.978;2023-07-29T00:31:34;38.05;36.43;40.86;;
67308;Laerm;57662;51.436;5.978;2023-07-29T00:31:44;38.21;36.55;39.84;;
67308;Laerm;57662;51.436;5.978;2023-07-29T00:31:55;37.90;36.22;39.20;;
67308;Laerm;57662;51.436;5.978;2023-07-29T00:32:05;38.63;36.97;41.85;;
67308;Laerm;57662;51.436;5.978;2023-07-29T00:32:16;38.18;36.57;42.81;;
67308;Laerm;57662;51.436;5.978;2023-07-29T00:32:29;37.84;36.09;39.84;;
67308;Laerm;57662;51.436;5.978;2023-07-29T00:32:39;36.99;35.48;38.44;;
67308;Laerm;57662;51.436;5.978;2023-07-29T00:32:50;36.64;35.31;37.77;;
67308;Laerm;57662;51.436;5.978;2023-07-29T00:33:00;36.93;35.30;38.30;;
67308;Laerm;57662;51.436;5.978;2023-07-29T00:33:10;37.24;36.12;38.46;;
67308;Laerm;57662;51.436;5.978;2023-07-29T00:33:21;37.12;35.44;38.70;;
67308;Laerm;57662;51.436;5.978;2023-07-29T00:33:31;36.84;35.26;37.94;;
67308;Laerm;57662;51.436;5.978;2023-07-29T00:33:41;36.66;35.00;37.99;;
67308;Laerm;57662;51.436;5.978;2023-07-29T00:33:51;36.70;35.38;37.91;;
67308;Laerm;57662;51.436;5.978;2023-07-29T00:34:02;36.96;35.25;38.33;;
67308;Laerm;57662;51.436;5.978;2023-07-29T00:34:13;37.04;35.77;38.21;;
67308;Laerm;57662;51.436;5.978;2023-07-29T00:34:27;36.95;35.34;38.21;;
67308;Laerm;57662;51.436;5.978;2023-07-29T00:34:37;37.43;35.92;38.88;;
67308;Laerm;57662;51.436;5.978;2023-07-29T00:34:47;37.82;36.37;39.25;;
67308;Laerm;57662;51.436;5.978;2023-07-29T00:34:58;37.93;36.35;40.79;;
67308;Laerm;57662;51.436;5.978;2023-07-29T00:35:10;37.41;35.49;41.03;;
67308;Laerm;57662;51.436;5.978;2023-07-29T00:35:21;37.41;36.00;39.79;;
67308;Laerm;57662;51.436;5.978;2023-07-29T00:35:31;37.24;35.70;39.00;;
67308;Laerm;57662;51.436;5.978;2023-07-29T00:35:41;37.49;35.92;39.74;;
67308;Laerm;57662;51.436;5.978;2023-07-29T00:35:52;37.17;35.40;38.68;;
67308;Laerm;57662;51.436;5.978;2023-07-29T00:36:02;36.84;35.40;38.24;;
67308;Laerm;57662;51.436;5.978;2023-07-29T00:36:13;36.76;35.47;37.94;;
67308;Laerm;57662;51.436;5.978;2023-07-29T00:36:23;36.90;35.68;38.72;;
67308;Laerm;57662;51.436;5.978;2023-07-29T00:36:33;36.75;35.60;37.88;;
67308;Laerm;57662;51.436;5.978;2023-07-29T00:36:44;36.99;35.83;38.30;;
67308;Laerm;57662;51.436;5.978;2023-07-29T00:36:54;37.16;35.29;38.41;;
67308;Laerm;57662;51.436;5.978;2023-07-29T00:37:04;37.16;36.06;38.18;;
67308;Laerm;57662;51.436;5.978;2023-07-29T00:37:16;36.81;35.58;38.07;;
67308;Laerm;57662;51.436;5.978;2023-07-29T00:37:27;36.74;35.72;37.86;;
67308;Laerm;57662;51.436;5.978;2023-07-29T00:37:37;36.96;35.84;38.22;;
67308;Laerm;57662;51.436;5.978;2023-07-29T00:37:48;36.77;35.34;38.23;;
67308;Laerm;57662;51.436;5.978;2023-07-29T00:37:58;36.83;35.62;37.99;;
67308;Laerm;57662;51.436;5.978;2023-07-29T00:38:08;36.79;35.41;38.20;;
67308;Laerm;57662;51.436;5.978;2023-07-29T00:38:18;36.63;35.63;37.70;;
67308;Laerm;57662;51.436;5.978;2023-07-29T00:38:29;36.79;35.53;38.13;;
67308;Laerm;57662;51.436;5.978;2023-07-29T00:38:39;36.98;35.96;38.16;;
67308;Laerm;57662;51.436;5.978;2023-07-29T00:38:49;40.97;35.96;46.55;;
67308;Laerm;57662;51.436;5.978;2023-07-29T00:39:00;42.43;38.78;45.28;;
67308;Laerm;57662;51.436;5.978;2023-07-29T00:39:11;43.08;39.70;46.00;;
67308;Laerm;57662;51.436;5.978;2023-07-29T00:39:21;43.77;40.07;46.82;;
67308;Laerm;57662;51.436;5.978;2023-07-29T00:39:32;44.12;40.58;46.79;;
67308;Laerm;57662;51.436;5.978;2023-07-29T00:39:43;47.56;41.56;55.65;;
67308;Laerm;57662;51.436;5.978;2023-07-29T00:39:53;67.12;55.43;69.90;;
67308;Laerm;57662;51.436;5.978;2023-07-29T00:40:09;69.35;66.77;71.43;;
67308;Laerm;57662;51.436;5.978;2023-07-29T00:40:22;58.80;40.81;69.77;;
67308;Laerm;57662;51.436;5.978;2023-07-29T00:40:35;40.55;38.06;47.98;;
67308;Laerm;57662;51.436;5.978;2023-07-29T00:40:45;39.25;37.15;42.24;;
67308;Laerm;57662;51.436;5.978;2023-07-29T00:41:00;38.33;36.46;40.43;;
67308;Laerm;57662;51.436;5.978;2023-07-29T00:41:10;40.48;38.16;43.92;;
67308;Laerm;57662;51.436;5.978;2023-07-29T00:41:23;38.02;35.96;39.74;;
67308;Laerm;57662;51.436;5.978;2023-07-29T00:41:33;37.46;35.92;39.15;;
67308;Laerm;57662;51.436;5.978;2023-07-29T00:41:44;36.90;35.78;38.18;;
67308;Laerm;57662;51.436;5.978;2023-07-29T00:41:54;37.30;35.74;39.65;;
67308;Laerm;57662;51.436;5.978;2023-07-29T00:42:04;36.64;35.22;37.88;;
67308;Laerm;57662;51.436;5.978;2023-07-29T00:42:15;36.65;35.49;37.78;;
67308;Laerm;57662;51.436;5.978;2023-07-29T00:42:25;36.40;35.19;37.98;;
67308;Laerm;57662;51.436;5.978;2023-07-29T00:42:35;36.30;35.18;37.86;;
67308;Laerm;57662;51.436;5.978;2023-07-29T00:42:46;36.18;35.07;37.55;;
67308;Laerm;57662;51.436;5.978;2023-07-29T00:42:56;36.75;35.28;37.91;;
67308;Laerm;57662;51.436;5.978;2023-07-29T00:43:06;36.55;34.91;38.01;;
67308;Laerm;57662;51.436;5.978;2023-07-29T00:43:17;36.80;35.32;38.89;;
67308;Laerm;57662;51.436;5.978;2023-07-29T00:43:27;36.50;35.08;38.34;;
67308;Laerm;57662;51.436;5.978;2023-07-29T00:43:37;36.30;34.99;37.27;;
67308;Laerm;57662;51.436;5.978;2023-07-29T00:43:48;36.19;34.72;37.39;;
67308;Laerm;57662;51.436;5.978;2023-07-29T00:43:58;36.20;34.68;37.18;;
67308;Laerm;57662;51.436;5.978;2023-07-29T00:44:08;36.07;34.83;38.59;;
67308;Laerm;57662;51.436;5.978;2023-07-29T00:44:18;35.98;34.77;37.35;;
67308;Laerm;57662;51.436;5.978;2023-07-29T00:44:29;35.93;34.69;37.33;;
67308;Laerm;57662;51.436;5.978;2023-07-29T00:44:41;36.66;35.07;39.63;;
67308;Laerm;57662;51.436;5.978;2023-07-29T00:44:51;36.11;34.92;37.04;;
67308;Laerm;57662;51.436;5.978;2023-07-29T00:45:02;36.21;34.81;37.59;;
67308;Laerm;57662;51.436;5.978;2023-07-29T00:45:12;39.57;35.58;43.10;;
67308;Laerm;57662;51.436;5.978;2023-07-29T00:45:23;36.97;35.14;39.69;;
67308;Laerm;57662;51.436;5.978;2023-07-29T00:45:35;35.85;34.71;37.23;;
67308;Laerm;57662;51.436;5.978;2023-07-29T00:45:46;35.90;34.93;37.22;;
67308;Laerm;57662;51.436;5.978;2023-07-29T00:45:56;35.94;34.60;37.39;;
67308;Laerm;57662;51.436;5.978;2023-07-29T00:46:08;35.73;34.77;36.88;;
67308;Laerm;57662;51.436;5.978;2023-07-29T00:46:20;35.77;34.63;36.81;;
67308;Laerm;57662;51.436;5.978;2023-07-29T00:46:30;36.04;34.88;37.15;;
67308;Laerm;57662;51.436;5.978;2023-07-29T00:46:41;35.92;34.82;37.37;;
67308;Laerm;57662;51.436;5.978;2023-07-29T00:46:52;35.95;34.76;37.46;;
67308;Laerm;57662;51.436;5.978;2023-07-29T00:47:03;35.88;34.72;37.02;;
67308;Laerm;57662;51.436;5.978;2023-07-29T00:47:15;35.82;34.59;36.91;;
67308;Laerm;57662;51.436;5.978;2023-07-29T00:47:26;35.86;34.60;37.30;;
67308;Laerm;57662;51.436;5.978;2023-07-29T00:47:37;36.07;34.74;37.27;;
67308;Laerm;57662;51.436;5.978;2023-07-29T00:47:47;35.91;34.41;37.00;;
67308;Laerm;57662;51.436;5.978;2023-07-29T00:47:58;36.03;34.73;37.12;;
67308;Laerm;57662;51.436;5.978;2023-07-29T00:48:08;36.14;34.97;37.22;;
67308;Laerm;57662;51.436;5.978;2023-07-29T00:48:18;36.28;34.78;37.61;;
67308;Laerm;57662;51.436;5.978;2023-07-29T00:48:29;36.18;35.18;37.33;;
67308;Laerm;57662;51.436;5.978;2023-07-29T00:48:39;36.12;34.83;37.14;;
67308;Laerm;57662;51.436;5.978;2023-07-29T00:48:50;35.84;34.80;37.25;;
67308;Laerm;57662;51.436;5.978;2023-07-29T00:49:00;35.81;34.65;36.99;;
67308;Laerm;57662;51.436;5.978;2023-07-29T00:49:10;36.16;34.84;37.41;;
67308;Laerm;57662;51.436;5.978;2023-07-29T00:49:21;36.46;35.43;37.92;;
67308;Laerm;57662;51.436;5.978;2023-07-29T00:49:31;36.28;35.32;37.65;;
67308;Laerm;57662;51.436;5.978;2023-07-29T00:49:43;36.17;34.65;37.55;;
67308;Laerm;57662;51.436;5.978;2023-07-29T00:49:54;36.41;34.99;37.81;;
67308;Laerm;57662;51.436;5.978;2023-07-29T00:50:05;36.99;35.38;39.26;;
67308;Laerm;57662;51.436;5.978;2023-07-29T00:50:16;36.16;34.91;37.41;;
67308;Laerm;57662;51.436;5.978;2023-07-29T00:50:26;36.05;35.06;37.11;;
67308;Laerm;57662;51.436;5.978;2023-07-29T00:50:38;36.27;34.62;40.96;;
67308;Laerm;57662;51.436;5.978;2023-07-29T00:50:48;36.21;35.00;38.34;;
67308;Laerm;57662;51.436;5.978;2023-07-29T00:50:59;36.12;34.65;37.31;;
67308;Laerm;57662;51.436;5.978;2023-07-29T00:51:09;36.36;35.41;37.64;;
67308;Laerm;57662;51.436;5.978;2023-07-29T00:51:20;36.31;34.71;37.44;;
67308;Laerm;57662;51.436;5.978;2023-07-29T00:51:30;36.30;34.93;37.45;;
67308;Laerm;57662;51.436;5.978;2023-07-29T00:51:41;36.24;35.01;37.53;;
67308;Laerm;57662;51.436;5.978;2023-07-29T00:51:51;36.15;35.07;37.27;;
67308;Laerm;57662;51.436;5.978;2023-07-29T00:52:01;36.61;35.14;38.26;;
67308;Laerm;57662;51.436;5.978;2023-07-29T00:52:12;36.47;35.04;37.65;;
67308;Laerm;57662;51.436;5.978;2023-07-29T00:52:22;36.44;35.12;38.03;;
67308;Laerm;57662;51.436;5.978;2023-07-29T00:52:32;36.40;35.44;37.38;;
67308;Laerm;57662;51.436;5.978;2023-07-29T00:52:43;36.43;35.35;37.73;;
67308;Laerm;57662;51.436;5.978;2023-07-29T00:52:54;36.53;35.32;41.06;;
67308;Laerm;57662;51.436;5.978;2023-07-29T00:53:04;36.46;34.96;37.81;;
67308;Laerm;57662;51.436;5.978;2023-07-29T00:53:14;36.68;35.40;37.80;;
67308;Laerm;57662;51.436;5.978;2023-07-29T00:53:25;36.88;35.73;37.97;;
67308;Laerm;57662;51.436;5.978;2023-07-29T00:53:35;36.92;35.81;38.08;;
67308;Laerm;57662;51.436;5.978;2023-07-29T00:53:45;37.04;35.76;38.45;;
67308;Laerm;57662;51.436;5.978;2023-07-29T00:53:55;36.88;35.44;38.03;;
67308;Laerm;57662;51.436;5.978;2023-07-29T00:54:06;36.68;35.54;38.12;;
67308;Laerm;57662;51.436;5.978;2023-07-29T00:54:16;36.85;35.68;38.20;;
67308;Laerm;57662;51.436;5.978;2023-07-29T00:54:26;36.75;35.67;37.83;;
67308;Laerm;57662;51.436;5.978;2023-07-29T00:54:36;36.54;34.91;37.87;;
67308;Laerm;57662;51.436;5.978;2023-07-29T00:54:47;36.81;35.39;37.97;;
67308;Laerm;57662;51.436;5.978;2023-07-29T00:54:58;36.82;35.52;38.27;;
67308;Laerm;57662;51.436;5.978;2023-07-29T00:55:08;36.96;35.60;38.31;;
67308;Laerm;57662;51.436;5.978;2023-07-29T00:55:19;38.63;36.01;43.02;;
67308;Laerm;57662;51.436;5.978;2023-07-29T00:55:29;46.15;39.87;52.41;;
67308;Laerm;57662;51.436;5.978;2023-07-29T00:55:39;42.34;37.56;46.04;;
67308;Laerm;57662;51.436;5.978;2023-07-29T00:55:49;37.45;35.46;39.11;;
67308;Laerm;57662;51.436;5.978;2023-07-29T00:56:00;36.75;35.52;38.05;;
67308;Laerm;57662;51.436;5.978;2023-07-29T00:56:10;36.83;35.73;37.99;;
67308;Laerm;57662;51.436;5.978;2023-07-29T00:56:21;37.01;35.77;38.34;;
67308;Laerm;57662;51.436;5.978;2023-07-29T00:56:31;36.82;35.54;38.12;;
67308;Laerm;57662;51.436;5.978;2023-07-29T00:56:41;36.82;35.07;38.20;;
67308;Laerm;57662;51.436;5.978;2023-07-29T00:56:52;36.67;34.76;37.76;;
67308;Laerm;57662;51.436;5.978;2023-07-29T00:57:02;36.84;35.09;38.05;;
67308;Laerm;57662;51.436;5.978;2023-07-29T00:57:13;36.69;35.62;37.77;;
67308;Laerm;57662;51.436;5.978;2023-07-29T00:57:25;36.94;35.63;38.33;;
67308;Laerm;57662;51.436;5.978;2023-07-29T00:57:36;36.88;35.64;38.02;;
67308;Laerm;57662;51.436;5.978;2023-07-29T00:57:46;36.96;35.66;37.99;;
67308;Laerm;57662;51.436;5.978;2023-07-29T00:57:58;36.95;35.62;38.22;;
67308;Laerm;57662;51.436;5.978;2023-07-29T00:58:09;36.98;35.69;38.33;;
67308;Laerm;57662;51.436;5.978;2023-07-29T00:58:20;36.89;35.72;38.33;;
67308;Laerm;57662;51.436;5.978;2023-07-29T00:58:30;36.83;35.76;37.99;;
67308;Laerm;57662;51.436;5.978;2023-07-29T00:58:40;36.97;35.61;38.19;;
67308;Laerm;57662;51.436;5.978;2023-07-29T00:58:51;36.77;35.56;38.09;;
67308;Laerm;57662;51.436;5.978;2023-07-29T00:59:07;36.92;35.56;38.48;;
67308;Laerm;57662;51.436;5.978;2023-07-29T00:59:20;36.89;35.48;37.98;;
67308;Laerm;57662;51.436;5.978;2023-07-29T00:59:30;36.76;35.33;38.12;;